Time;durP1;ratioP1;P1;durP2;ratioP2;P2;SDS_P1;SDS_P2;PMS_P1;PMS_P2;Temp;Humidity;BMP_temperature;BMP_pressure;BME280_temperature;BME280_humidity;BME280_pressure;Samples;Min_cycle;Max_cycle;Signal;HPM_P1;HPM_P2
2024/01/19 00:01:18;;;;;;;4.05;1.80;;;-3274.20;98.20;;;;;;5021322;28;20365;-72
2024/01/19 00:03:44;;;;;;;4.30;1.95;;;-3274.10;98.10;;;;;;5024976;28;20028;-72
2024/01/19 00:06:10;;;;;;;5.57;1.52;;;-3274.10;98.10;;;;;;5024545;28;20330;-72
2024/01/19 00:08:35;;;;;;;4.03;2.35;;;-3274.10;98.10;;;;;;5027534;28;20040;-72
2024/01/19 00:11:02;;;;;;;4.57;1.83;;;-3274.20;98.10;;;;;;5022289;28;20045;-72
2024/01/19 00:13:27;;;;;;;2.95;2.10;;;-3274.30;98.20;;;;;;5022928;28;20045;-72
2024/01/19 00:15:55;;;;;;;3.88;1.88;;;-3274.30;98.10;;;;;;5021252;28;20147;-72
2024/01/19 00:18:21;;;;;;;3.75;2.05;;;-3274.30;98.10;;;;;;5022890;28;20029;-72
2024/01/19 00:20:46;;;;;;;3.22;1.63;;;-3274.50;98.30;;;;;;5022907;28;20038;-72
2024/01/19 00:23:12;;;;;;;2.42;1.55;;;-3274.50;98.30;;;;;;5025326;28;20160;-72
2024/01/19 00:25:38;;;;;;;3.80;1.63;;;-3274.50;98.20;;;;;;5020676;28;20044;-72
2024/01/19 00:28:04;;;;;;;2.28;1.35;;;-3274.50;98.30;;;;;;5020765;28;20458;-72
2024/01/19 00:30:30;;;;;;;4.00;1.45;;;-3274.50;98.20;;;;;;5022819;28;20080;-72
2024/01/19 00:32:55;;;;;;;2.90;1.45;;;-3274.50;98.40;;;;;;5022210;28;20052;-72
2024/01/19 00:35:21;;;;;;;2.80;1.38;;;-3274.60;98.40;;;;;;5020074;28;20121;-72
2024/01/19 00:37:46;;;;;;;2.00;1.33;;;-3274.70;98.30;;;;;;5026120;28;20025;-72
2024/01/19 00:40:12;;;;;;;3.90;1.42;;;-3274.80;98.50;;;;;;5025863;28;20544;-72
2024/01/19 00:42:41;;;;;;;3.05;1.23;;;-3274.90;98.60;;;;;;5023163;28;20060;-72
2024/01/19 00:45:09;;;;;;;1.40;1.30;;;-3274.90;98.60;;;;;;5024065;28;20034;-72
2024/01/19 00:47:35;;;;;;;2.45;1.38;;;-3275.00;98.60;;;;;;5024219;28;20124;-72
2024/01/19 00:50:02;;;;;;;3.38;1.20;;;-3275.00;98.60;;;;;;5027218;28;21009;-72
2024/01/19 00:52:27;;;;;;;2.67;1.38;;;-3275.00;98.60;;;;;;5029206;28;20030;-71
2024/01/19 00:54:53;;;;;;;1.25;0.90;;;-3275.00;98.60;;;;;;5029344;28;20044;-72
2024/01/19 00:57:18;;;;;;;1.75;1.23;;;-3274.90;98.70;;;;;;5022577;28;20037;-72
2024/01/19 00:59:44;;;;;;;3.38;0.95;;;-3274.80;98.80;;;;;;5022543;28;20033;-72
2024/01/19 01:02:09;;;;;;;3.83;1.38;;;-3274.80;98.90;;;;;;5026861;28;20082;-72
2024/01/19 01:04:35;;;;;;;2.78;1.52;;;-3274.70;99.10;;;;;;5028855;28;20064;-72
2024/01/19 01:07:00;;;;;;;1.73;0.93;;;-3274.60;99.00;;;;;;5024982;28;20091;-72
2024/01/19 01:09:26;;;;;;;2.65;1.25;;;-3274.50;99.00;;;;;;5029382;28;20047;-72
2024/01/19 01:11:52;;;;;;;1.73;1.10;;;-3274.50;99.20;;;;;;5026646;28;20029;-72
2024/01/19 01:14:17;;;;;;;2.20;1.30;;;-3274.50;99.10;;;;;;5027641;28;20079;-72
2024/01/19 01:16:43;;;;;;;1.85;1.05;;;-3274.50;99.20;;;;;;5021988;28;20117;-73
2024/01/19 01:19:08;;;;;;;2.05;1.17;;;-3274.40;99.10;;;;;;5025288;28;20064;-72
2024/01/19 01:21:34;;;;;;;1.67;1.00;;;-3274.30;99.00;;;;;;5021353;28;20030;-72
2024/01/19 01:23:59;;;;;;;2.00;1.50;;;-3274.30;99.00;;;;;;5024562;28;20073;-72
2024/01/19 01:26:25;;;;;;;4.45;1.10;;;-3274.40;98.90;;;;;;5026841;28;20240;-72
2024/01/19 01:28:50;;;;;;;1.92;0.93;;;-3274.40;98.70;;;;;;5028061;28;20132;-72
2024/01/19 01:31:16;;;;;;;4.38;1.33;;;-3274.50;98.60;;;;;;5024843;28;20124;-73
2024/01/19 01:33:42;;;;;;;4.50;1.55;;;-3274.50;98.40;;;;;;5023862;28;20099;-72
2024/01/19 01:36:07;;;;;;;4.90;1.58;;;-3274.50;98.40;;;;;;5028065;28;20075;-72
2024/01/19 01:38:33;;;;;;;2.80;1.40;;;-3274.60;98.30;;;;;;5021606;28;20405;-72
2024/01/19 01:40:58;;;;;;;1.83;1.20;;;-3274.70;98.30;;;;;;5027821;28;20033;-72
2024/01/19 01:43:24;;;;;;;2.90;1.27;;;-3274.70;98.20;;;;;;5027743;28;20124;-72
2024/01/19 01:45:51;;;;;;;5.50;1.48;;;-3274.70;98.10;;;;;;5015270;28;20037;-72
2024/01/19 01:48:18;;;;;;;5.25;1.20;;;-3274.70;98.20;;;;;;5026518;28;20025;-72
2024/01/19 01:50:44;;;;;;;2.53;1.38;;;-3274.80;98.10;;;;;;5022912;28;20029;-72
2024/01/19 01:53:11;;;;;;;3.03;1.27;;;-3274.80;98.00;;;;;;5018332;28;20099;-72
2024/01/19 01:55:36;;;;;;;2.83;1.17;;;-3274.90;98.10;;;;;;5025868;28;20099;-72
2024/01/19 01:58:02;;;;;;;2.08;0.90;;;-3275.20;97.70;;;;;;5021939;28;20033;-71
2024/01/19 02:00:29;;;;;;;1.65;0.90;;;-3275.30;97.30;;;;;;5022263;28;20048;-72
2024/01/19 02:02:57;;;;;;;3.10;1.00;;;-3275.40;96.90;;;;;;5023150;28;20116;-71
2024/01/19 02:05:23;;;;;;;1.58;0.98;;;-3275.50;96.50;;;;;;5022753;28;20056;-72
2024/01/19 02:07:48;;;;;;;1.63;1.00;;;-3275.50;96.40;;;;;;5026291;28;20037;-72
2024/01/19 02:10:14;;;;;;;3.20;1.30;;;-3275.50;96.40;;;;;;5020418;28;20131;-72
2024/01/19 02:12:40;;;;;;;2.47;1.10;;;-3275.50;96.40;;;;;;5021984;28;20334;-72
2024/01/19 02:15:06;;;;;;;3.03;1.33;;;-3275.40;96.40;;;;;;5025346;28;20697;-72
2024/01/19 02:17:32;;;;;;;1.77;1.02;;;-3275.40;96.50;;;;;;5023983;28;20026;-72
2024/01/19 02:19:57;;;;;;;1.70;0.82;;;-3275.30;96.70;;;;;;5025435;28;20487;-72
2024/01/19 02:22:23;;;;;;;2.75;1.55;;;-3275.30;96.80;;;;;;5024150;28;20422;-72
2024/01/19 02:24:49;;;;;;;2.05;0.93;;;-3275.20;96.90;;;;;;5027330;28;20037;-71
2024/01/19 02:27:15;;;;;;;2.50;1.10;;;-3275.10;96.90;;;;;;5024398;28;20064;-72
2024/01/19 02:29:48;;;;;;;4.05;1.25;;;-3275.10;96.90;;;;;;5021076;28;20136;-71
2024/01/19 02:32:13;;;;;;;3.22;1.08;;;-3275.00;96.80;;;;;;5020788;28;20110;-72
2024/01/19 02:34:39;;;;;;;1.73;1.20;;;-3275.00;97.00;;;;;;5025654;28;20116;-72
2024/01/19 02:37:04;;;;;;;2.10;1.15;;;-3275.00;96.90;;;;;;5020669;28;20029;-72
2024/01/19 02:39:30;;;;;;;1.25;1.08;;;-3274.90;96.80;;;;;;5025780;28;20465;-72
2024/01/19 02:41:55;;;;;;;3.10;1.42;;;-3275.00;96.90;;;;;;5019915;28;20053;-72
2024/01/19 02:44:21;;;;;;;2.13;1.20;;;-3275.00;96.80;;;;;;5018759;28;20112;-72
2024/01/19 02:46:46;;;;;;;1.90;1.08;;;-3275.00;96.90;;;;;;5014458;28;20442;-72
2024/01/19 02:49:11;;;;;;;2.63;1.17;;;-3275.00;96.90;;;;;;5012201;28;20077;-73
2024/01/19 02:51:37;;;;;;;3.25;1.17;;;-3275.00;96.90;;;;;;5018029;28;20037;-71
2024/01/19 02:54:02;;;;;;;3.88;1.20;;;-3275.10;97.10;;;;;;5039095;28;20044;-72
2024/01/19 02:56:28;;;;;;;3.70;1.40;;;-3275.10;97.00;;;;;;5020300;28;20442;-72
2024/01/19 02:58:53;;;;;;;1.92;1.17;;;-3275.10;97.10;;;;;;5021748;28;20413;-72
2024/01/19 03:01:19;;;;;;;5.03;1.58;;;-3275.10;97.10;;;;;;5017313;28;20060;-72
2024/01/19 03:03:45;;;;;;;2.25;0.98;;;-3275.10;97.20;;;;;;5024985;28;20479;-72
2024/01/19 03:06:10;;;;;;;2.90;1.17;;;-3275.10;97.30;;;;;;5022640;28;20148;-72
2024/01/19 03:08:36;;;;;;;1.38;1.02;;;-3275.20;97.20;;;;;;5024618;28;20030;-72
2024/01/19 03:11:01;;;;;;;4.57;1.15;;;-3275.20;97.20;;;;;;5024498;28;20083;-72
2024/01/19 03:13:26;;;;;;;9.48;1.33;;;-3275.20;97.30;;;;;;5022189;28;20056;-72
2024/01/19 03:15:52;;;;;;;1.52;0.80;;;-3275.30;97.30;;;;;;5013945;28;20060;-72
2024/01/19 03:18:18;;;;;;;1.80;0.80;;;-3275.40;97.40;;;;;;5017665;28;20384;-72
2024/01/19 03:20:44;;;;;;;2.13;1.10;;;-3275.50;97.50;;;;;;5031013;28;20087;-72
2024/01/19 03:23:09;;;;;;;3.33;0.90;;;-3275.50;97.60;;;;;;5026835;28;20049;-72
2024/01/19 03:25:35;;;;;;;2.03;1.00;;;-3275.50;97.70;;;;;;5024855;28;20033;-71
2024/01/19 03:28:00;;;;;;;1.60;1.05;;;-3275.50;97.80;;;;;;5018526;28;20050;-71
2024/01/19 03:30:27;;;;;;;1.98;1.10;;;-3275.50;98.00;;;;;;5020155;28;20080;-71
2024/01/19 03:32:52;;;;;;;7.75;1.40;;;-3275.60;98.10;;;;;;5025406;28;20346;-71
2024/01/19 03:35:18;;;;;;;2.20;1.13;;;-3275.60;98.20;;;;;;5015719;28;20073;-71
2024/01/19 03:37:43;;;;;;;1.30;0.70;;;-3275.50;98.30;;;;;;5014082;28;20478;-71
2024/01/19 03:40:09;;;;;;;3.08;0.80;;;-3275.50;98.40;;;;;;5019739;28;20528;-71
2024/01/19 03:42:35;;;;;;;1.33;1.00;;;-3275.50;98.20;;;;;;5024430;28;20373;-71
2024/01/19 03:45:00;;;;;;;2.10;1.23;;;-3275.40;98.20;;;;;;5019020;28;20057;-71
2024/01/19 03:47:26;;;;;;;6.90;1.60;;;-3275.30;98.10;;;;;;5019076;28;20025;-72
2024/01/19 03:49:51;;;;;;;2.92;1.48;;;-3275.30;98.00;;;;;;5023402;28;20442;-71
2024/01/19 03:52:18;;;;;;;4.13;0.90;;;-3275.40;97.80;;;;;;5025266;28;20034;-71
2024/01/19 03:54:44;;;;;;;1.70;1.10;;;-3275.30;97.70;;;;;;5025094;28;20060;-71
2024/01/19 03:57:09;;;;;;;1.50;0.90;;;-3275.40;97.50;;;;;;5024705;28;20068;-71
2024/01/19 03:59:35;;;;;;;4.22;1.38;;;-3275.50;97.30;;;;;;5016699;28;20049;-72
2024/01/19 04:02:01;;;;;;;1.75;1.30;;;-3275.50;97.20;;;;;;5024148;28;20068;-70
2024/01/19 04:04:26;;;;;;;2.65;1.10;;;-3275.50;97.00;;;;;;5024182;28;20124;-71
2024/01/19 04:06:52;;;;;;;0.65;0.65;;;-3275.50;96.90;;;;;;5024692;28;20202;-72
2024/01/19 04:09:19;;;;;;;1.95;1.48;;;-3275.50;96.80;;;;;;5025782;28;20048;-71
2024/01/19 04:11:45;;;;;;;1.48;0.77;;;-3275.50;96.80;;;;;;5024051;28;20092;-72
2024/01/19 04:14:11;;;;;;;2.67;1.00;;;-3275.50;96.80;;;;;;5026264;28;20104;-71
2024/01/19 04:16:37;;;;;;;3.15;1.30;;;-3275.50;96.70;;;;;;5024321;28;20121;-71
2024/01/19 04:19:04;;;;;;;3.33;1.45;;;-3275.40;96.50;;;;;;5023824;28;20040;-71
2024/01/19 04:21:32;;;;;;;2.78;0.90;;;-3275.40;96.60;;;;;;5025759;28;20026;-72
2024/01/19 04:23:58;;;;;;;1.67;1.05;;;-3275.40;96.70;;;;;;5026346;28;20063;-71
2024/01/19 04:26:24;;;;;;;3.50;0.98;;;-3275.40;96.80;;;;;;5028718;28;20114;-72
2024/01/19 04:28:50;;;;;;;1.00;0.55;;;-3275.50;96.90;;;;;;5024020;28;20129;-71
2024/01/19 04:31:15;;;;;;;1.70;0.70;;;-3275.50;97.20;;;;;;5023392;28;20088;-72
2024/01/19 04:33:41;;;;;;;1.30;0.85;;;-3275.40;97.30;;;;;;5025321;28;20334;-71
2024/01/19 04:36:07;;;;;;;3.97;0.80;;;-3275.40;97.60;;;;;;5024453;28;20136;-71
2024/01/19 04:38:32;;;;;;;1.83;0.88;;;-3275.50;97.90;;;;;;5030937;28;20024;-71
2024/01/19 04:40:58;;;;;;;2.78;0.98;;;-3275.50;98.10;;;;;;5025382;28;20049;-72
2024/01/19 04:43:23;;;;;;;2.38;1.17;;;-3275.50;98.20;;;;;;5036316;28;20188;-72
2024/01/19 04:45:49;;;;;;;1.70;1.00;;;-3275.60;98.30;;;;;;5026031;28;20030;-71
2024/01/19 04:48:14;;;;;;;5.85;1.90;;;-3275.60;98.40;;;;;;5022253;28;20065;-71
2024/01/19 04:50:40;;;;;;;2.03;0.90;;;-3275.70;98.40;;;;;;5026893;28;20405;-70
2024/01/19 04:53:05;;;;;;;2.10;1.20;;;-3275.60;98.40;;;;;;5023482;28;20069;-71
2024/01/19 04:55:31;;;;;;;2.83;1.42;;;-3275.70;98.60;;;;;;5028515;28;20035;-70
2024/01/19 04:57:56;;;;;;;1.70;0.90;;;-3275.70;98.50;;;;;;5021499;28;20140;-71
2024/01/19 05:00:22;;;;;;;1.85;1.10;;;-3275.70;98.70;;;;;;5024759;28;20032;-71
2024/01/19 05:02:48;;;;;;;2.55;1.33;;;-3275.60;98.60;;;;;;5022896;28;20042;-71
2024/01/19 05:05:14;;;;;;;2.05;1.40;;;-3275.60;98.80;;;;;;5023422;28;20139;-71
2024/01/19 05:07:40;;;;;;;1.52;1.08;;;-3275.50;99.10;;;;;;5025921;28;20124;-71
2024/01/19 05:10:06;;;;;;;3.13;1.63;;;-3275.50;99.20;;;;;;5027322;28;20184;-71
2024/01/19 05:12:32;;;;;;;3.88;1.50;;;-3275.40;99.20;;;;;;5026128;28;20025;-71
2024/01/19 05:14:57;;;;;;;2.40;1.20;;;-3275.40;99.20;;;;;;5017455;28;20029;-71
2024/01/19 05:17:23;;;;;;;1.20;0.90;;;-3275.40;99.40;;;;;;5028896;28;20044;-71
2024/01/19 05:19:48;;;;;;;2.33;1.33;;;-3275.40;99.30;;;;;;5022410;28;20500;-71
2024/01/19 05:22:14;;;;;;;1.67;1.00;;;-3275.40;99.40;;;;;;5027937;28;20063;-71
2024/01/19 05:24:41;;;;;;;1.83;1.00;;;-3275.50;99.40;;;;;;5022527;28;20476;-71
2024/01/19 05:27:06;;;;;;;2.45;1.25;;;-3275.50;99.30;;;;;;5025653;28;20119;-71
2024/01/19 05:29:32;;;;;;;1.23;1.10;;;-3275.50;99.20;;;;;;5019943;28;20411;-72
2024/01/19 05:31:57;;;;;;;4.88;1.55;;;-3275.60;99.10;;;;;;5026472;28;20041;-71
2024/01/19 05:34:23;;;;;;;3.50;1.90;;;-3275.60;99.10;;;;;;5026487;28;20030;-71
2024/01/19 05:36:48;;;;;;;4.57;2.38;;;-3275.60;99.20;;;;;;5020226;28;20038;-72
2024/01/19 05:39:14;;;;;;;3.75;2.05;;;-3275.60;99.10;;;;;;5017816;28;20513;-71
2024/01/19 05:41:39;;;;;;;4.38;2.63;;;-3275.60;99.10;;;;;;5022696;28;20088;-71
2024/01/19 05:44:05;;;;;;;5.20;2.90;;;-3275.60;99.10;;;;;;5018888;28;20113;-71
2024/01/19 05:46:30;;;;;;;6.13;2.97;;;-3275.60;99.10;;;;;;5017800;28;20049;-71
2024/01/19 05:48:56;;;;;;;4.50;2.55;;;-3275.60;99.10;;;;;;5024274;28;20097;-71
2024/01/19 05:51:21;;;;;;;7.43;3.15;;;-3275.70;99.10;;;;;;5024824;28;20116;-70
2024/01/19 05:53:47;;;;;;;3.20;2.17;;;-3275.70;99.00;;;;;;5026400;28;20103;-70
2024/01/19 05:56:13;;;;;;;5.50;2.45;;;-3275.70;98.90;;;;;;5025533;28;20108;-71
2024/01/19 05:58:38;;;;;;;4.38;2.38;;;-3275.80;98.90;;;;;;5022294;28;20029;-70
2024/01/19 06:01:05;;;;;;;4.35;2.05;;;-3275.80;98.90;;;;;;5026315;28;20122;-70
2024/01/19 06:03:33;;;;;;;3.63;1.92;;;-3275.80;98.80;;;;;;5024598;28;20036;-70
2024/01/19 06:05:59;;;;;;;3.50;1.73;;;-3275.90;98.90;;;;;;5026711;28;20025;-70
2024/01/19 06:08:25;;;;;;;5.93;1.98;;;-3275.90;98.80;;;;;;5026386;28;20147;-70
2024/01/19 06:10:50;;;;;;;4.05;1.63;;;-3275.90;98.80;;;;;;5027210;28;20442;-71
2024/01/19 06:13:15;;;;;;;3.20;2.00;;;-3275.90;98.90;;;;;;5025397;28;20037;-69
2024/01/19 06:15:41;;;;;;;5.40;1.83;;;-3275.90;99.20;;;;;;5025881;28;20033;-70
2024/01/19 06:18:06;;;;;;;2.45;1.50;;;-3275.90;99.60;;;;;;5021863;28;20393;-70
2024/01/19 06:20:33;;;;;;;2.65;1.27;;;-3275.90;99.70;;;;;;5026645;28;20503;-70
2024/01/19 06:22:58;;;;;;;2.80;1.13;;;-3275.80;99.80;;;;;;5028093;28;20045;-69
2024/01/19 06:25:23;;;;;;;2.25;1.58;;;-3275.80;99.80;;;;;;5018513;28;20072;-69
2024/01/19 06:27:49;;;;;;;2.15;1.05;;;-3275.80;99.90;;;;;;5023348;28;20481;-70
2024/01/19 06:30:14;;;;;;;3.95;1.60;;;-3275.80;99.90;;;;;;5024072;28;20098;-69
2024/01/19 06:32:40;;;;;;;2.50;1.33;;;-3275.80;99.90;;;;;;5026925;28;20029;-69
2024/01/19 06:35:06;;;;;;;3.58;2.03;;;-3275.70;99.90;;;;;;5025518;28;20052;-69
2024/01/19 06:37:32;;;;;;;3.30;1.73;;;-3275.80;99.90;;;;;;5027675;28;20037;-69
2024/01/19 06:39:58;;;;;;;3.75;1.80;;;-3275.70;99.90;;;;;;5027436;28;20071;-69
2024/01/19 06:42:24;;;;;;;3.72;2.08;;;-3275.70;99.90;;;;;;5025899;28;20513;-71
2024/01/19 06:44:49;;;;;;;4.55;1.75;;;-3275.70;99.90;;;;;;5019934;28;20105;-69
2024/01/19 06:47:18;;;;;;;3.20;1.75;;;-3275.70;99.90;;;;;;5020891;28;20033;-68
2024/01/19 06:49:43;;;;;;;1.83;1.30;;;-3275.60;99.90;;;;;;5016272;28;20536;-68
2024/01/19 06:52:10;;;;;;;3.85;1.20;;;-3275.60;99.90;;;;;;5033256;28;20115;-68
2024/01/19 06:54:35;;;;;;;1.38;1.00;;;-3275.60;99.90;;;;;;5019253;28;20025;-68
2024/01/19 06:57:01;;;;;;;2.58;1.35;;;-3275.60;99.90;;;;;;5020390;28;20037;-69
2024/01/19 06:59:27;;;;;;;2.35;1.20;;;-3275.60;99.90;;;;;;5021286;28;20108;-70
2024/01/19 07:01:52;;;;;;;2.08;1.13;;;-3275.70;99.80;;;;;;5024950;28;20351;-68
2024/01/19 07:04:18;;;;;;;2.83;1.10;;;-3275.70;99.70;;;;;;5021890;28;20049;-68
2024/01/19 07:06:43;;;;;;;3.20;1.73;;;-3275.70;99.60;;;;;;5022787;28;20433;-68
2024/01/19 07:09:09;;;;;;;2.75;1.48;;;-3275.60;99.50;;;;;;5021972;28;20132;-68
2024/01/19 07:11:37;;;;;;;2.30;1.02;;;-3275.60;99.40;;;;;;5022379;28;20030;-68
2024/01/19 07:14:03;;;;;;;5.15;1.40;;;-3275.60;99.50;;;;;;5026115;28;20315;-69
2024/01/19 07:16:29;;;;;;;3.67;1.65;;;-3275.60;99.50;;;;;;5016502;28;20124;-68
2024/01/19 07:18:54;;;;;;;2.83;1.70;;;-3275.60;99.30;;;;;;5028234;28;20148;-68
2024/01/19 07:21:20;;;;;;;4.10;1.83;;;-3275.70;99.30;;;;;;5026215;28;20466;-68
2024/01/19 07:23:45;;;;;;;3.08;1.85;;;-3275.60;99.20;;;;;;5028881;28;20029;-67
2024/01/19 07:26:11;;;;;;;3.58;1.70;;;-3275.60;99.10;;;;;;5026978;28;20049;-67
2024/01/19 07:28:36;;;;;;;2.55;1.50;;;-3275.50;99.00;;;;;;5025890;28;20119;-68
2024/01/19 07:31:02;;;;;;;3.05;1.63;;;-3275.40;99.00;;;;;;5016948;28;20570;-68
2024/01/19 07:33:28;;;;;;;4.05;2.03;;;-3275.40;99.00;;;;;;5023406;28;20064;-68
2024/01/19 07:35:54;;;;;;;3.25;1.63;;;-3275.30;98.90;;;;;;5024156;28;20124;-68
2024/01/19 07:38:19;;;;;;;3.22;1.65;;;-3275.30;98.90;;;;;;5025951;28;20038;-68
2024/01/19 07:40:45;;;;;;;6.18;1.88;;;-3275.30;98.80;;;;;;5020753;28;20029;-68
2024/01/19 07:43:10;;;;;;;4.30;2.00;;;-3275.20;98.80;;;;;;5021973;28;20070;-68
2024/01/19 07:45:36;;;;;;;2.42;1.60;;;-3275.20;99.00;;;;;;5016276;28;20177;-68
2024/01/19 07:48:01;;;;;;;3.70;1.77;;;-3275.20;99.00;;;;;;5007260;28;20143;-68
2024/01/19 07:50:28;;;;;;;3.05;1.63;;;-3275.40;99.10;;;;;;5025005;28;20056;-68
2024/01/19 07:52:53;;;;;;;3.60;1.88;;;-3275.40;98.90;;;;;;5018375;28;20030;-68
2024/01/19 07:55:20;;;;;;;4.10;1.67;;;-3275.40;98.80;;;;;;5021025;28;20033;-69
2024/01/19 07:57:45;;;;;;;4.60;2.03;;;-3275.40;98.80;;;;;;5028813;28;20159;-69
2024/01/19 08:00:11;;;;;;;3.03;1.65;;;-3275.50;98.80;;;;;;5027812;28;20064;-68
2024/01/19 08:02:37;;;;;;;4.10;1.50;;;-3275.50;98.70;;;;;;5027151;28;20037;-68
2024/01/19 08:05:03;;;;;;;2.47;1.23;;;-3275.70;98.70;;;;;;5022135;28;20156;-69
2024/01/19 08:07:28;;;;;;;6.47;2.05;;;-3275.80;98.50;;;;;;5033334;28;20421;-69
2024/01/19 08:09:54;;;;;;;3.72;1.95;;;-3275.80;98.40;;;;;;5025189;28;20181;-68
2024/01/19 08:12:19;;;;;;;3.00;1.90;;;-3275.90;98.30;;;;;;5026206;28;20154;-68
2024/01/19 08:14:45;;;;;;;5.50;1.88;;;-3276.00;98.10;;;;;;5027785;28;20449;-68
2024/01/19 08:17:10;;;;;;;5.18;1.60;;;-3276.10;97.90;;;;;;5020013;28;20065;-68
2024/01/19 08:19:35;;;;;;;4.25;2.28;;;-3276.10;97.90;;;;;;5026092;28;20072;-68
2024/01/19 08:22:01;;;;;;;2.72;1.55;;;-3276.10;97.90;;;;;;5034363;28;20435;-67
2024/01/19 08:24:27;;;;;;;3.47;1.60;;;-3276.10;97.90;;;;;;5022217;28;20018;-68
2024/01/19 08:26:53;;;;;;;4.47;1.63;;;-3276.00;97.90;;;;;;5035443;28;20085;-68
2024/01/19 08:29:19;;;;;;;4.32;2.13;;;-3276.10;97.90;;;;;;5029463;28;20091;-68
2024/01/19 08:31:44;;;;;;;3.47;1.88;;;-3276.10;97.80;;;;;;5019620;28;20113;-69
2024/01/19 08:34:13;;;;;;;3.85;1.90;;;-3276.00;97.70;;;;;;5017904;28;20044;-68
2024/01/19 08:36:42;;;;;;;5.90;1.52;;;-3276.10;97.70;;;;;;5026701;28;20052;-68
2024/01/19 08:39:09;;;;;;;2.72;1.60;;;-3276.00;97.60;;;;;;5019269;28;20060;-68
2024/01/19 08:41:44;;;;;;;5.55;2.10;;;-3276.00;97.60;;;;;;5020757;28;20044;-67
2024/01/19 08:44:10;;;;;;;7.55;1.95;;;-3275.90;97.50;;;;;;5031573;28;20118;-68
2024/01/19 08:46:44;;;;;;;2.30;1.38;;;-3275.90;97.50;;;;;;5024657;28;20046;-68
2024/01/19 08:49:10;;;;;;;5.57;1.30;;;-3275.90;97.50;;;;;;5024229;28;20331;-69
2024/01/19 08:51:36;;;;;;;3.03;1.75;;;-3276.00;97.40;;;;;;5019329;28;20040;-68
2024/01/19 08:54:02;;;;;;;3.70;1.63;;;-3276.00;97.20;;;;;;5028500;28;20439;-68
2024/01/19 08:56:27;;;;;;;2.55;1.50;;;-3276.00;97.30;;;;;;5024073;28;20099;-69
2024/01/19 08:58:54;;;;;;;3.70;1.40;;;-3276.00;97.30;;;;;;5019691;28;20515;-68
2024/01/19 09:01:19;;;;;;;4.75;1.98;;;-3276.10;97.40;;;;;;5023203;28;20036;-68
2024/01/19 09:03:45;;;;;;;2.75;1.85;;;-3276.20;97.40;;;;;;5029575;28;20025;-68
2024/01/19 09:06:11;;;;;;;3.33;1.85;;;-3276.10;97.40;;;;;;5024785;28;20038;-67
2024/01/19 09:08:40;;;;;;;3.10;1.92;;;-3276.20;97.40;;;;;;5027802;28;20041;-68
2024/01/19 09:11:06;;;;;;;4.78;1.90;;;-3276.20;97.30;;;;;;5021373;28;20403;-68
2024/01/19 09:13:31;;;;;;;4.45;2.00;;;-3276.30;97.10;;;;;;5018198;28;20072;-68
2024/01/19 09:15:57;;;;;;;3.08;1.67;;;-3276.40;96.90;;;;;;5014852;28;20108;-68
2024/01/19 09:18:22;;;;;;;3.20;1.80;;;-3276.30;96.90;;;;;;5024673;28;20147;-67
2024/01/19 09:20:48;;;;;;;4.57;2.00;;;-3276.30;97.00;;;;;;5018958;28;20060;-68
2024/01/19 09:23:13;;;;;;;4.45;2.28;;;-3276.40;97.00;;;;;;5029240;28;20381;-68
2024/01/19 09:25:39;;;;;;;2.92;1.48;;;-3276.50;96.80;;;;;;5023082;28;20057;-67
2024/01/19 09:28:05;;;;;;;6.97;2.10;;;-3276.70;96.50;;;;;;5021724;28;20181;-68
2024/01/19 09:30:30;;;;;;;3.63;1.90;;;0.10;96.30;;;;;;5025839;28;20431;-68
2024/01/19 09:32:55;;;;;;;3.13;2.00;;;0.30;95.40;;;;;;5042026;28;20217;-67
2024/01/19 09:35:21;;;;;;;5.32;2.67;;;0.50;95.00;;;;;;5027756;28;20073;-67
2024/01/19 09:37:46;;;;;;;3.47;1.80;;;0.40;94.80;;;;;;5032370;28;20041;-67
2024/01/19 09:40:12;;;;;;;3.65;1.90;;;0.20;94.90;;;;;;5029452;28;20035;-68
2024/01/19 09:42:39;;;;;;;2.85;1.58;;;0.00;95.40;;;;;;5031933;28;20120;-68
2024/01/19 09:45:07;;;;;;;4.35;1.75;;;0.00;95.60;;;;;;5025739;28;20069;-68
2024/01/19 09:47:32;;;;;;;2.92;1.60;;;0.00;95.80;;;;;;5023099;28;20029;-67
2024/01/19 09:50:04;;;;;;;4.30;2.13;;;0.00;95.70;;;;;;5026256;28;20396;-69
2024/01/19 09:52:55;;;;;;;2.30;1.20;;;0.00;95.70;;;;;;5027441;28;20083;-68
2024/01/19 09:55:23;;;;;;;2.78;1.25;;;0.00;95.40;;;;;;5026276;28;20494;-68
2024/01/19 09:57:49;;;;;;;5.30;1.58;;;0.00;95.40;;;;;;5027144;28;20078;-68
2024/01/19 10:00:16;;;;;;;3.05;1.52;;;0.00;95.10;;;;;;5025725;28;20098;-68
2024/01/19 10:02:52;;;;;;;2.13;1.30;;;0.10;94.90;;;;;;5021781;28;20041;-67
2024/01/19 10:05:20;;;;;;;1.63;1.10;;;0.10;95.00;;;;;;5027014;28;20037;-68
2024/01/19 10:07:53;;;;;;;2.28;1.38;;;0.10;94.60;;;;;;5026769;28;20179;-67
2024/01/19 10:10:19;;;;;;;2.15;1.50;;;0.20;94.50;;;;;;5026527;28;20049;-68
2024/01/19 10:12:44;;;;;;;2.28;1.27;;;0.30;94.20;;;;;;5024676;28;20538;-68
2024/01/19 10:15:14;;;;;;;3.67;1.10;;;0.30;93.90;;;;;;5024170;28;20101;-67
2024/01/19 10:17:40;;;;;;;4.00;1.67;;;0.40;94.00;;;;;;5023331;28;20029;-68
2024/01/19 10:20:10;;;;;;;2.28;1.00;;;0.40;93.80;;;;;;5028324;28;20112;-68
2024/01/19 10:22:35;;;;;;;2.25;1.00;;;0.50;93.70;;;;;;5025085;28;20465;-68
2024/01/19 10:25:08;;;;;;;2.42;1.38;;;0.60;93.30;;;;;;5029540;28;20125;-67
2024/01/19 10:27:38;;;;;;;3.10;1.58;;;0.70;93.00;;;;;;5028799;28;20064;-67
2024/01/19 10:30:17;;;;;;;2.88;1.45;;;0.90;92.20;;;;;;5023064;28;20456;-67
2024/01/19 10:32:48;;;;;;;3.50;1.35;;;1.10;91.70;;;;;;5027142;28;20037;-68
2024/01/19 10:35:21;;;;;;;7.53;1.40;;;1.20;91.70;;;;;;5026894;28;20080;-67
2024/01/19 10:37:48;;;;;;;3.75;1.38;;;1.00;91.60;;;;;;5020282;28;20508;-67
2024/01/19 10:40:25;;;;;;;3.65;1.38;;;1.10;92.20;;;;;;5013262;28;20045;-67
2024/01/19 10:42:56;;;;;;;1.90;0.70;;;1.10;91.70;;;;;;5035649;28;20139;-67
2024/01/19 10:45:28;;;;;;;1.13;0.63;;;1.30;91.40;;;;;;5026468;28;20079;-67
2024/01/19 10:47:59;;;;;;;2.50;1.15;;;1.40;91.40;;;;;;5021715;28;20091;-68
2024/01/19 10:50:26;;;;;;;0.70;0.60;;;1.30;91.50;;;;;;5022517;28;20026;-67
2024/01/19 10:52:53;;;;;;;1.70;0.98;;;1.10;91.40;;;;;;5025235;28;20057;-67
2024/01/19 10:55:24;;;;;;;10.48;1.42;;;1.10;91.70;;;;;;5020053;28;20129;-67
2024/01/19 10:57:57;;;;;;;12.63;1.50;;;1.20;91.50;;;;;;5020974;28;20346;-68
2024/01/19 11:00:24;;;;;;;1.63;0.77;;;1.00;91.30;;;;;;5024536;28;20111;-67
2024/01/19 11:02:52;;;;;;;2.03;0.70;;;1.10;91.60;;;;;;5019940;28;20112;-67
2024/01/19 11:05:21;;;;;;;1.85;0.85;;;1.30;91.10;;;;;;5026217;28;20052;-68
2024/01/19 11:07:51;;;;;;;2.15;0.90;;;1.60;90.70;;;;;;5022030;28;20104;-67
2024/01/19 11:10:19;;;;;;;1.08;0.63;;;1.80;89.60;;;;;;5024564;28;20052;-67
2024/01/19 11:12:57;;;;;;;4.03;1.05;;;2.00;88.60;;;;;;5025478;28;20029;-69
2024/01/19 11:15:40;;;;;;;3.15;0.63;;;2.50;88.10;;;;;;5023976;28;20049;-67
2024/01/19 11:18:06;;;;;;;2.35;0.60;;;2.00;88.40;;;;;;5024301;28;20041;-68
2024/01/19 11:20:33;;;;;;;0.80;0.77;;;1.80;89.40;;;;;;5020277;28;20386;-68
2024/01/19 11:23:00;;;;;;;3.67;1.17;;;1.60;90.20;;;;;;5026781;28;20060;-68
2024/01/19 11:25:58;;;;;;;4.03;1.00;;;1.50;89.80;;;;;;5024183;28;20129;-68
2024/01/19 11:28:53;;;;;;;1.70;0.80;;;1.60;90.20;;;;;;5021129;28;20041;-68
2024/01/19 11:31:22;;;;;;;3.75;0.80;;;1.70;90.20;;;;;;5023554;28;20079;-68
2024/01/19 11:33:48;;;;;;;1.98;0.80;;;2.00;89.70;;;;;;5024178;28;20053;-70
2024/01/19 11:36:38;;;;;;;3.28;0.98;;;2.30;88.60;;;;;;5024228;28;20079;-68
2024/01/19 11:39:07;;;;;;;4.77;0.83;;;2.50;88.40;;;;;;5009099;28;20040;-68
2024/01/19 11:41:33;;;;;;;1.48;0.90;;;2.30;88.40;;;;;;5022962;28;20057;-68
2024/01/19 11:44:12;;;;;;;2.08;1.00;;;2.10;89.00;;;;;;5025228;28;20064;-69
2024/01/19 11:46:50;;;;;;;2.05;1.00;;;2.10;88.90;;;;;;5021072;28;20117;-68
2024/01/19 11:49:35;;;;;;;2.33;0.93;;;2.00;89.50;;;;;;5025091;28;20046;-68
2024/01/19 11:52:21;;;;;;;2.42;1.13;;;1.80;89.90;;;;;;5022272;28;20025;-67
2024/01/19 11:54:46;;;;;;;2.85;1.00;;;1.60;90.50;;;;;;5019691;28;20544;-69
2024/01/19 11:57:19;;;;;;;1.23;0.80;;;1.60;90.80;;;;;;5023756;28;20026;-69
2024/01/19 11:59:45;;;;;;;2.17;0.88;;;1.60;91.00;;;;;;5033848;28;20037;-69
2024/01/19 12:02:21;;;;;;;1.00;0.75;;;1.50;90.90;;;;;;5023108;28;20120;-68
2024/01/19 12:04:49;;;;;;;2.30;0.90;;;1.60;90.90;;;;;;5024685;28;20425;-68
2024/01/19 12:07:19;;;;;;;1.05;0.80;;;1.60;91.00;;;;;;5021419;28;20064;-68
2024/01/19 12:09:45;;;;;;;1.33;0.67;;;1.60;91.50;;;;;;5018913;28;20041;-69
2024/01/19 12:12:11;;;;;;;3.95;0.93;;;1.40;92.80;;;;;;5017159;28;20602;-69
2024/01/19 12:14:36;;;;;;;2.78;1.00;;;1.10;94.50;;;;;;5019645;28;20061;-70
2024/01/19 12:17:02;;;;;;;1.20;0.70;;;0.90;95.20;;;;;;5026729;28;20090;-68
2024/01/19 12:19:27;;;;;;;3.05;0.88;;;0.70;96.40;;;;;;5025506;28;20156;-68
2024/01/19 12:21:56;;;;;;;1.85;1.08;;;0.60;96.90;;;;;;5023002;28;20479;-68
2024/01/19 12:24:22;;;;;;;2.40;1.10;;;0.40;97.80;;;;;;5022752;28;20502;-68